sensor_id;sensor_type;location;lat;lon;timestamp;temperature;humidity
13496;DHT22;6820;49.374;8.452;2023-08-12T00:00:46;24.31;99.99
13496;DHT22;6820;49.374;8.452;2023-08-12T00:04:48;24.33;99.99
13496;DHT22;6820;49.374;8.452;2023-08-12T00:08:50;24.34;99.99
13496;DHT22;6820;49.374;8.452;2023-08-12T00:12:52;24.33;99.99
13496;DHT22;6820;49.374;8.452;2023-08-12T00:16:53;24.27;99.99
13496;DHT22;6820;49.374;8.452;2023-08-12T00:20:55;24.36;99.99
13496;DHT22;6820;49.374;8.452;2023-08-12T00:24:57;24.34;99.99
13496;DHT22;6820;49.374;8.452;2023-08-12T00:28:58;24.34;99.99
13496;DHT22;6820;49.374;8.452;2023-08-12T00:33:00;24.33;99.99
13496;DHT22;6820;49.374;8.452;2023-08-12T00:37:02;24.33;99.99
13496;DHT22;6820;49.374;8.452;2023-08-12T00:41:03;24.27;99.99
13496;DHT22;6820;49.374;8.452;2023-08-12T00:45:09;24.26;99.99
13496;DHT22;6820;49.374;8.452;2023-08-12T00:49:14;24.26;99.99
13496;DHT22;6820;49.374;8.452;2023-08-12T00:53:16;24.21;99.99
13496;DHT22;6820;49.374;8.452;2023-08-12T00:57:18;24.23;99.99
13496;DHT22;6820;49.374;8.452;2023-08-12T01:01:22;24.19;99.99
13496;DHT22;6820;49.374;8.452;2023-08-12T01:05:24;24.21;99.99
13496;DHT22;6820;49.374;8.452;2023-08-12T01:09:26;24.21;99.99
13496;DHT22;6820;49.374;8.452;2023-08-12T01:17:58;24.19;99.99
13496;DHT22;6820;49.374;8.452;2023-08-12T01:22:02;24.18;99.99
13496;DHT22;6820;49.374;8.452;2023-08-12T01:26:06;24.15;99.99
13496;DHT22;6820;49.374;8.452;2023-08-12T01:30:07;24.14;99.99
13496;DHT22;6820;49.374;8.452;2023-08-12T01:34:13;24.14;99.99
13496;DHT22;6820;49.374;8.452;2023-08-12T01:38:40;24.12;99.99
13496;DHT22;6820;49.374;8.452;2023-08-12T01:42:44;24.14;99.99
13496;DHT22;6820;49.374;8.452;2023-08-12T01:46:48;24.09;99.99
13496;DHT22;6820;49.374;8.452;2023-08-12T01:50:52;24.08;99.99
13496;DHT22;6820;49.374;8.452;2023-08-12T01:54:54;24.08;99.99
13496;DHT22;6820;49.374;8.452;2023-08-12T01:58:55;24.06;99.99
13496;DHT22;6820;49.374;8.452;2023-08-12T02:02:57;24.00;99.99
13496;DHT22;6820;49.374;8.452;2023-08-12T02:06:59;23.94;99.99
13496;DHT22;6820;49.374;8.452;2023-08-12T02:11:01;23.94;99.99
13496;DHT22;6820;49.374;8.452;2023-08-12T02:15:02;23.94;99.99
13496;DHT22;6820;49.374;8.452;2023-08-12T02:19:05;23.92;99.99
13496;DHT22;6820;49.374;8.452;2023-08-12T02:23:06;23.82;99.99
13496;DHT22;6820;49.374;8.452;2023-08-12T02:27:08;23.77;99.99
13496;DHT22;6820;49.374;8.452;2023-08-12T02:31:10;23.74;99.99
13496;DHT22;6820;49.374;8.452;2023-08-12T02:35:12;23.69;99.99
13496;DHT22;6820;49.374;8.452;2023-08-12T02:39:14;23.62;99.99
13496;DHT22;6820;49.374;8.452;2023-08-12T02:43:16;23.56;99.99
13496;DHT22;6820;49.374;8.452;2023-08-12T02:47:18;23.54;99.99
13496;DHT22;6820;49.374;8.452;2023-08-12T02:51:19;23.54;99.99
13496;DHT22;6820;49.374;8.452;2023-08-12T02:55:21;23.52;99.99
13496;DHT22;6820;49.374;8.452;2023-08-12T02:59:23;23.49;99.99
13496;DHT22;6820;49.374;8.452;2023-08-12T03:03:26;23.50;99.99
13496;DHT22;6820;49.374;8.452;2023-08-12T03:07:28;23.53;99.99
13496;DHT22;6820;49.374;8.452;2023-08-12T03:11:29;23.57;99.99
13496;DHT22;6820;49.374;8.452;2023-08-12T03:15:33;23.53;99.99
13496;DHT22;6820;49.374;8.452;2023-08-12T03:19:35;23.53;99.99
13496;DHT22;6820;49.374;8.452;2023-08-12T03:23:37;23.50;99.99
13496;DHT22;6820;49.374;8.452;2023-08-12T03:27:40;23.50;99.99
13496;DHT22;6820;49.374;8.452;2023-08-12T03:31:43;23.47;99.99
13496;DHT22;6820;49.374;8.452;2023-08-12T03:35:45;23.42;99.99
13496;DHT22;6820;49.374;8.452;2023-08-12T03:39:49;23.44;99.99
13496;DHT22;6820;49.374;8.452;2023-08-12T03:43:50;23.37;99.99
13496;DHT22;6820;49.374;8.452;2023-08-12T03:47:52;23.34;99.99
13496;DHT22;6820;49.374;8.452;2023-08-12T03:51:54;23.34;99.99
13496;DHT22;6820;49.374;8.452;2023-08-12T03:55:56;23.32;99.99
13496;DHT22;6820;49.374;8.452;2023-08-12T03:59:58;23.34;99.99
13496;DHT22;6820;49.374;8.452;2023-08-12T04:04:00;23.35;99.99
13496;DHT22;6820;49.374;8.452;2023-08-12T04:08:02;23.38;99.99
13496;DHT22;6820;49.374;8.452;2023-08-12T04:12:04;23.38;99.99
13496;DHT22;6820;49.374;8.452;2023-08-12T04:16:06;23.37;99.99
13496;DHT22;6820;49.374;8.452;2023-08-12T04:20:08;23.34;99.99
13496;DHT22;6820;49.374;8.452;2023-08-12T04:24:10;23.34;99.99
13496;DHT22;6820;49.374;8.452;2023-08-12T04:28:13;23.31;99.99
13496;DHT22;6820;49.374;8.452;2023-08-12T04:32:15;23.31;99.99
13496;DHT22;6820;49.374;8.452;2023-08-12T04:36:18;23.34;99.99
13496;DHT22;6820;49.374;8.452;2023-08-12T04:40:20;23.37;99.99
13496;DHT22;6820;49.374;8.452;2023-08-12T04:44:24;23.35;99.99
13496;DHT22;6820;49.374;8.452;2023-08-12T04:48:26;23.35;99.99
13496;DHT22;6820;49.374;8.452;2023-08-12T04:52:28;23.37;99.99
13496;DHT22;6820;49.374;8.452;2023-08-12T04:56:30;23.37;99.99
13496;DHT22;6820;49.374;8.452;2023-08-12T05:00:32;23.38;99.99
13496;DHT22;6820;49.374;8.452;2023-08-12T05:04:34;23.41;99.99
13496;DHT22;6820;49.374;8.452;2023-08-12T05:08:35;23.42;99.99
13496;DHT22;6820;49.374;8.452;2023-08-12T05:12:37;23.44;99.99
13496;DHT22;6820;49.374;8.452;2023-08-12T05:16:39;23.44;99.99
13496;DHT22;6820;49.374;8.452;2023-08-12T05:20:41;23.42;99.99
13496;DHT22;6820;49.374;8.452;2023-08-12T05:24:47;23.39;99.99
13496;DHT22;6820;49.374;8.452;2023-08-12T05:28:49;23.37;99.99
13496;DHT22;6820;49.374;8.452;2023-08-12T05:32:51;23.32;99.99
13496;DHT22;6820;49.374;8.452;2023-08-12T05:36:53;23.26;99.99
13496;DHT22;6820;49.374;8.452;2023-08-12T05:40:54;23.23;99.99
13496;DHT22;6820;49.374;8.452;2023-08-12T05:44:56;23.22;99.99
13496;DHT22;6820;49.374;8.452;2023-08-12T05:48:58;23.23;99.99
13496;DHT22;6820;49.374;8.452;2023-08-12T05:53:00;23.25;99.99
13496;DHT22;6820;49.374;8.452;2023-08-12T05:57:02;23.25;99.99
13496;DHT22;6820;49.374;8.452;2023-08-12T06:01:04;23.34;99.99
13496;DHT22;6820;49.374;8.452;2023-08-12T06:05:06;23.38;99.99
13496;DHT22;6820;49.374;8.452;2023-08-12T06:09:08;23.42;99.99
13496;DHT22;6820;49.374;8.452;2023-08-12T06:13:10;23.49;99.99
13496;DHT22;6820;49.374;8.452;2023-08-12T06:17:11;23.52;99.99
13496;DHT22;6820;49.374;8.452;2023-08-12T06:21:13;23.59;99.99
13496;DHT22;6820;49.374;8.452;2023-08-12T06:25:15;23.71;99.99
13496;DHT22;6820;49.374;8.452;2023-08-12T06:29:16;23.92;99.99
13496;DHT22;6820;49.374;8.452;2023-08-12T06:33:18;24.18;99.99
13496;DHT22;6820;49.374;8.452;2023-08-12T06:37:19;24.41;99.99
13496;DHT22;6820;49.374;8.452;2023-08-12T06:41:21;24.60;99.99
13496;DHT22;6820;49.374;8.452;2023-08-12T06:45:26;24.67;99.99
13496;DHT22;6820;49.374;8.452;2023-08-12T06:49:27;24.67;99.99
13496;DHT22;6820;49.374;8.452;2023-08-12T06:53:29;24.64;99.99
13496;DHT22;6820;49.374;8.452;2023-08-12T06:57:31;24.75;99.99
13496;DHT22;6820;49.374;8.452;2023-08-12T07:01:33;24.92;99.99
13496;DHT22;6820;49.374;8.452;2023-08-12T07:05:34;25.01;99.99
13496;DHT22;6820;49.374;8.452;2023-08-12T07:09:36;24.97;99.99
13496;DHT22;6820;49.374;8.452;2023-08-12T07:13:38;24.94;99.99
13496;DHT22;6820;49.374;8.452;2023-08-12T07:17:40;24.97;99.99
13496;DHT22;6820;49.374;8.452;2023-08-12T07:21:42;25.04;99.99
13496;DHT22;6820;49.374;8.452;2023-08-12T07:25:45;25.08;99.99
13496;DHT22;6820;49.374;8.452;2023-08-12T07:29:48;25.16;99.99
13496;DHT22;6820;49.374;8.452;2023-08-12T07:33:49;25.27;99.99
13496;DHT22;6820;49.374;8.452;2023-08-12T07:37:51;25.41;99.99
13496;DHT22;6820;49.374;8.452;2023-08-12T07:41:53;25.46;99.99
13496;DHT22;6820;49.374;8.452;2023-08-12T07:45:55;25.59;99.99
13496;DHT22;6820;49.374;8.452;2023-08-12T07:50:09;25.66;99.99
13496;DHT22;6820;49.374;8.452;2023-08-12T07:54:12;25.59;99.99
13496;DHT22;6820;49.374;8.452;2023-08-12T07:58:14;25.72;99.99
13496;DHT22;6820;49.374;8.452;2023-08-12T08:02:15;25.81;99.99
13496;DHT22;6820;49.374;8.452;2023-08-12T08:06:17;25.94;99.99
13496;DHT22;6820;49.374;8.452;2023-08-12T08:10:19;25.89;99.99
13496;DHT22;6820;49.374;8.452;2023-08-12T08:14:21;25.93;99.99
13496;DHT22;6820;49.374;8.452;2023-08-12T08:18:22;26.03;99.99
13496;DHT22;6820;49.374;8.452;2023-08-12T08:22:24;26.01;99.99
13496;DHT22;6820;49.374;8.452;2023-08-12T08:26:26;26.03;99.99
13496;DHT22;6820;49.374;8.452;2023-08-12T08:30:28;26.19;99.99
13496;DHT22;6820;49.374;8.452;2023-08-12T08:34:30;26.42;99.99
13496;DHT22;6820;49.374;8.452;2023-08-12T08:38:32;26.60;99.99
13496;DHT22;6820;49.374;8.452;2023-08-12T08:42:33;26.75;99.99
13496;DHT22;6820;49.374;8.452;2023-08-12T08:46:35;26.78;99.99
13496;DHT22;6820;49.374;8.452;2023-08-12T08:50:37;26.75;99.99
13496;DHT22;6820;49.374;8.452;2023-08-12T08:54:41;26.83;99.99
13496;DHT22;6820;49.374;8.452;2023-08-12T08:58:42;26.98;99.99
13496;DHT22;6820;49.374;8.452;2023-08-12T09:02:47;27.28;99.99
13496;DHT22;6820;49.374;8.452;2023-08-12T09:06:51;27.55;99.99
13496;DHT22;6820;49.374;8.452;2023-08-12T09:10:54;27.68;99.99
13496;DHT22;6820;49.374;8.452;2023-08-12T09:14:56;27.87;99.99
13496;DHT22;6820;49.374;8.452;2023-08-12T09:18:58;27.93;99.99
13496;DHT22;6820;49.374;8.452;2023-08-12T09:23:00;27.95;99.99
13496;DHT22;6820;49.374;8.452;2023-08-12T09:27:01;27.88;99.99
13496;DHT22;6820;49.374;8.452;2023-08-12T09:31:03;27.91;99.99
13496;DHT22;6820;49.374;8.452;2023-08-12T09:35:05;27.96;99.99
13496;DHT22;6820;49.374;8.452;2023-08-12T09:39:17;27.93;99.99
13496;DHT22;6820;49.374;8.452;2023-08-12T09:43:23;28.01;99.99
13496;DHT22;6820;49.374;8.452;2023-08-12T09:47:25;28.13;99.99
13496;DHT22;6820;49.374;8.452;2023-08-12T09:51:33;28.35;99.99
13496;DHT22;6820;49.374;8.452;2023-08-12T09:55:38;28.62;99.99
13496;DHT22;6820;49.374;8.452;2023-08-12T09:59:41;28.61;99.99
13496;DHT22;6820;49.374;8.452;2023-08-12T10:03:43;28.70;99.99
13496;DHT22;6820;49.374;8.452;2023-08-12T10:07:53;28.74;99.99
13496;DHT22;6820;49.374;8.452;2023-08-12T10:11:55;28.72;99.99
13496;DHT22;6820;49.374;8.452;2023-08-12T10:15:57;28.70;99.99
13496;DHT22;6820;49.374;8.452;2023-08-12T10:20:00;28.74;99.99
13496;DHT22;6820;49.374;8.452;2023-08-12T10:24:05;28.85;99.99
13496;DHT22;6820;49.374;8.452;2023-08-12T10:28:08;28.77;99.99
13496;DHT22;6820;49.374;8.452;2023-08-12T10:32:09;28.89;99.99
13496;DHT22;6820;49.374;8.452;2023-08-12T10:36:12;29.26;99.99
13496;DHT22;6820;49.374;8.452;2023-08-12T10:40:20;29.63;99.99
13496;DHT22;6820;49.374;8.452;2023-08-12T10:44:27;29.89;99.99
13496;DHT22;6820;49.374;8.452;2023-08-12T10:48:40;30.13;99.99
13496;DHT22;6820;49.374;8.452;2023-08-12T10:52:57;29.91;99.99
13496;DHT22;6820;49.374;8.452;2023-08-12T11:01:08;29.32;99.99
13496;DHT22;6820;49.374;8.452;2023-08-12T11:05:17;28.95;99.99
13496;DHT22;6820;49.374;8.452;2023-08-12T11:09:22;28.64;99.99
13496;DHT22;6820;49.374;8.452;2023-08-12T11:13:26;28.21;99.99
13496;DHT22;6820;49.374;8.452;2023-08-12T11:17:37;27.84;99.99
13496;DHT22;6820;49.374;8.452;2023-08-12T11:21:41;26.96;99.99
13496;DHT22;6820;49.374;8.452;2023-08-12T11:25:44;26.36;99.99
13496;DHT22;6820;49.374;8.452;2023-08-12T11:29:46;25.90;99.99
13496;DHT22;6820;49.374;8.452;2023-08-12T11:33:50;25.51;99.99
13496;DHT22;6820;49.374;8.452;2023-08-12T11:37:54;25.05;99.99
13496;DHT22;6820;49.374;8.452;2023-08-12T11:41:57;24.56;99.99
13496;DHT22;6820;49.374;8.452;2023-08-12T11:45:59;24.33;99.99
13496;DHT22;6820;49.374;8.452;2023-08-12T11:50:02;24.27;99.99
13496;DHT22;6820;49.374;8.452;2023-08-12T11:54:07;24.21;99.99
13496;DHT22;6820;49.374;8.452;2023-08-12T11:58:09;24.39;99.99
13496;DHT22;6820;49.374;8.452;2023-08-12T12:02:12;24.52;99.99
13496;DHT22;6820;49.374;8.452;2023-08-12T12:06:15;24.63;99.99
13496;DHT22;6820;49.374;8.452;2023-08-12T12:10:25;24.80;99.99
13496;DHT22;6820;49.374;8.452;2023-08-12T12:14:35;24.93;99.99
13496;DHT22;6820;49.374;8.452;2023-08-12T12:18:40;25.17;99.99
13496;DHT22;6820;49.374;8.452;2023-08-12T12:22:42;25.42;99.99
13496;DHT22;6820;49.374;8.452;2023-08-12T12:26:45;25.54;99.99
13496;DHT22;6820;49.374;8.452;2023-08-12T12:30:50;25.79;99.99
13496;DHT22;6820;49.374;8.452;2023-08-12T12:34:55;25.90;99.99
13496;DHT22;6820;49.374;8.452;2023-08-12T12:38:56;25.98;99.99
13496;DHT22;6820;49.374;8.452;2023-08-12T12:42:58;26.04;99.99
13496;DHT22;6820;49.374;8.452;2023-08-12T12:47:00;26.13;99.99
13496;DHT22;6820;49.374;8.452;2023-08-12T12:51:02;26.20;99.99
13496;DHT22;6820;49.374;8.452;2023-08-12T12:55:04;26.35;99.99
13496;DHT22;6820;49.374;8.452;2023-08-12T12:59:06;26.39;99.99
13496;DHT22;6820;49.374;8.452;2023-08-12T13:03:08;26.41;99.99
13496;DHT22;6820;49.374;8.452;2023-08-12T13:07:09;26.34;99.99
13496;DHT22;6820;49.374;8.452;2023-08-12T13:11:13;26.34;99.99
13496;DHT22;6820;49.374;8.452;2023-08-12T13:15:15;26.47;99.99
13496;DHT22;6820;49.374;8.452;2023-08-12T13:19:16;26.51;99.99
13496;DHT22;6820;49.374;8.452;2023-08-12T13:23:18;26.75;99.99
13496;DHT22;6820;49.374;8.452;2023-08-12T13:27:20;26.97;99.99
13496;DHT22;6820;49.374;8.452;2023-08-12T13:31:22;27.09;99.99
13496;DHT22;6820;49.374;8.452;2023-08-12T13:35:23;26.98;99.99
13496;DHT22;6820;49.374;8.452;2023-08-12T13:39:25;26.90;99.99
13496;DHT22;6820;49.374;8.452;2023-08-12T13:43:27;27.03;99.99
13496;DHT22;6820;49.374;8.452;2023-08-12T13:47:29;27.08;99.99
13496;DHT22;6820;49.374;8.452;2023-08-12T13:51:31;27.21;99.99
13496;DHT22;6820;49.374;8.452;2023-08-12T13:55:33;27.30;99.99
13496;DHT22;6820;49.374;8.452;2023-08-12T13:59:34;27.53;99.99
13496;DHT22;6820;49.374;8.452;2023-08-12T14:03:36;27.66;99.99
13496;DHT22;6820;49.374;8.452;2023-08-12T14:07:38;27.50;99.99
13496;DHT22;6820;49.374;8.452;2023-08-12T14:11:40;27.21;99.99
13496;DHT22;6820;49.374;8.452;2023-08-12T14:15:41;27.01;99.99
13496;DHT22;6820;49.374;8.452;2023-08-12T14:19:43;27.03;99.99
13496;DHT22;6820;49.374;8.452;2023-08-12T14:23:48;27.20;99.99
13496;DHT22;6820;49.374;8.452;2023-08-12T14:27:50;27.21;99.99
13496;DHT22;6820;49.374;8.452;2023-08-12T14:31:52;27.05;99.99
13496;DHT22;6820;49.374;8.452;2023-08-12T14:35:53;26.87;99.99
13496;DHT22;6820;49.374;8.452;2023-08-12T14:39:55;26.73;99.99
13496;DHT22;6820;49.374;8.452;2023-08-12T14:43:57;26.71;99.99
13496;DHT22;6820;49.374;8.452;2023-08-12T14:47:59;26.79;99.99
13496;DHT22;6820;49.374;8.452;2023-08-12T14:52:01;26.94;99.99
13496;DHT22;6820;49.374;8.452;2023-08-12T14:56:03;27.03;99.99
13496;DHT22;6820;49.374;8.452;2023-08-12T15:00:05;27.15;99.99
13496;DHT22;6820;49.374;8.452;2023-08-12T15:04:08;27.25;99.99
13496;DHT22;6820;49.374;8.452;2023-08-12T15:08:10;27.31;99.99
13496;DHT22;6820;49.374;8.452;2023-08-12T15:12:11;27.43;99.99
13496;DHT22;6820;49.374;8.452;2023-08-12T15:16:13;27.66;99.99
13496;DHT22;6820;49.374;8.452;2023-08-12T15:20:15;28.18;99.99
13496;DHT22;6820;49.374;8.452;2023-08-12T15:24:17;28.25;99.99
13496;DHT22;6820;49.374;8.452;2023-08-12T15:28:18;28.14;99.99
13496;DHT22;6820;49.374;8.452;2023-08-12T15:32:21;28.01;99.99
13496;DHT22;6820;49.374;8.452;2023-08-12T15:36:22;27.96;99.99
13496;DHT22;6820;49.374;8.452;2023-08-12T15:40:24;27.91;99.99
13496;DHT22;6820;49.374;8.452;2023-08-12T15:44:26;27.93;99.99
13496;DHT22;6820;49.374;8.452;2023-08-12T15:48:28;28.18;99.99
13496;DHT22;6820;49.374;8.452;2023-08-12T15:52:30;28.23;99.99
13496;DHT22;6820;49.374;8.452;2023-08-12T15:56:34;28.05;99.99
13496;DHT22;6820;49.374;8.452;2023-08-12T16:00:38;27.87;99.99
13496;DHT22;6820;49.374;8.452;2023-08-12T16:04:44;27.68;99.99
13496;DHT22;6820;49.374;8.452;2023-08-12T16:08:46;27.50;99.99
13496;DHT22;6820;49.374;8.452;2023-08-12T16:13:05;27.45;99.99
13496;DHT22;6820;49.374;8.452;2023-08-12T16:17:07;27.39;99.99
13496;DHT22;6820;49.374;8.452;2023-08-12T16:21:10;27.52;99.99
13496;DHT22;6820;49.374;8.452;2023-08-12T16:25:12;27.74;99.99
13496;DHT22;6820;49.374;8.452;2023-08-12T16:29:13;27.87;99.99
13496;DHT22;6820;49.374;8.452;2023-08-12T16:33:15;27.88;99.99
13496;DHT22;6820;49.374;8.452;2023-08-12T16:37:17;27.90;99.99
13496;DHT22;6820;49.374;8.452;2023-08-12T16:41:22;27.83;99.99
13496;DHT22;6820;49.374;8.452;2023-08-12T16:45:24;27.65;99.99
13496;DHT22;6820;49.374;8.452;2023-08-12T16:49:25;27.48;99.99
13496;DHT22;6820;49.374;8.452;2023-08-12T16:53:27;27.33;99.99
13496;DHT22;6820;49.374;8.452;2023-08-12T16:57:28;27.28;99.99
13496;DHT22;6820;49.374;8.452;2023-08-12T17:01:30;27.33;99.99
13496;DHT22;6820;49.374;8.452;2023-08-12T17:05:33;27.31;99.99
13496;DHT22;6820;49.374;8.452;2023-08-12T17:09:34;27.25;99.99
13496;DHT22;6820;49.374;8.452;2023-08-12T17:13:36;27.15;99.99
13496;DHT22;6820;49.374;8.452;2023-08-12T17:17:38;27.05;99.99
13496;DHT22;6820;49.374;8.452;2023-08-12T17:21:40;26.91;99.99
13496;DHT22;6820;49.374;8.452;2023-08-12T17:25:41;26.81;99.99
13496;DHT22;6820;49.374;8.452;2023-08-12T17:29:43;26.72;99.99
13496;DHT22;6820;49.374;8.452;2023-08-12T17:33:45;26.66;99.99
13496;DHT22;6820;49.374;8.452;2023-08-12T17:37:46;26.56;99.99
13496;DHT22;6820;49.374;8.452;2023-08-12T17:41:48;26.46;99.99
13496;DHT22;6820;49.374;8.452;2023-08-12T17:45:50;26.35;99.99
13496;DHT22;6820;49.374;8.452;2023-08-12T17:49:52;26.16;99.99
13496;DHT22;6820;49.374;8.452;2023-08-12T17:53:53;26.04;99.99
13496;DHT22;6820;49.374;8.452;2023-08-12T17:57:55;25.96;99.99
13496;DHT22;6820;49.374;8.452;2023-08-12T18:01:57;25.90;99.99
13496;DHT22;6820;49.374;8.452;2023-08-12T18:06:00;25.85;99.99
13496;DHT22;6820;49.374;8.452;2023-08-12T18:10:05;25.89;99.99
13496;DHT22;6820;49.374;8.452;2023-08-12T18:14:07;25.83;99.99
13496;DHT22;6820;49.374;8.452;2023-08-12T18:18:09;25.79;99.99
13496;DHT22;6820;49.374;8.452;2023-08-12T18:22:11;25.69;99.99
13496;DHT22;6820;49.374;8.452;2023-08-12T18:26:13;25.61;99.99
13496;DHT22;6820;49.374;8.452;2023-08-12T18:30:14;25.54;99.99
13496;DHT22;6820;49.374;8.452;2023-08-12T18:34:16;25.48;99.99
13496;DHT22;6820;49.374;8.452;2023-08-12T18:38:17;25.42;99.99
13496;DHT22;6820;49.374;8.452;2023-08-12T18:42:19;25.36;99.99
13496;DHT22;6820;49.374;8.452;2023-08-12T18:46:21;25.29;99.99
13496;DHT22;6820;49.374;8.452;2023-08-12T18:50:23;25.22;99.99
13496;DHT22;6820;49.374;8.452;2023-08-12T18:54:25;25.16;99.99
13496;DHT22;6820;49.374;8.452;2023-08-12T18:58:27;25.09;99.99
13496;DHT22;6820;49.374;8.452;2023-08-12T19:02:29;25.02;99.99
13496;DHT22;6820;49.374;8.452;2023-08-12T19:06:31;24.97;99.99
13496;DHT22;6820;49.374;8.452;2023-08-12T19:10:33;24.87;99.99
13496;DHT22;6820;49.374;8.452;2023-08-12T19:14:35;24.86;99.99
13496;DHT22;6820;49.374;8.452;2023-08-12T19:18:36;24.82;99.99
13496;DHT22;6820;49.374;8.452;2023-08-12T19:22:38;24.80;99.99
13496;DHT22;6820;49.374;8.452;2023-08-12T19:26:40;24.79;99.99
13496;DHT22;6820;49.374;8.452;2023-08-12T19:30:41;24.77;99.99
13496;DHT22;6820;49.374;8.452;2023-08-12T19:34:43;24.77;99.99
13496;DHT22;6820;49.374;8.452;2023-08-12T19:38:45;24.70;99.99
13496;DHT22;6820;49.374;8.452;2023-08-12T19:42:47;24.64;99.99
13496;DHT22;6820;49.374;8.452;2023-08-12T19:46:48;24.56;99.99
13496;DHT22;6820;49.374;8.452;2023-08-12T19:50:50;24.55;99.99
13496;DHT22;6820;49.374;8.452;2023-08-12T19:54:55;24.49;99.99
13496;DHT22;6820;49.374;8.452;2023-08-12T19:58:58;24.46;99.99
13496;DHT22;6820;49.374;8.452;2023-08-12T20:02:59;24.45;99.99
13496;DHT22;6820;49.374;8.452;2023-08-12T20:07:01;24.41;99.99
13496;DHT22;6820;49.374;8.452;2023-08-12T20:11:02;24.36;99.99
13496;DHT22;6820;49.374;8.452;2023-08-12T20:15:04;24.34;99.99
13496;DHT22;6820;49.374;8.452;2023-08-12T20:19:06;24.30;99.99
13496;DHT22;6820;49.374;8.452;2023-08-12T20:23:08;24.27;99.99
13496;DHT22;6820;49.374;8.452;2023-08-12T20:27:10;24.23;99.99
13496;DHT22;6820;49.374;8.452;2023-08-12T20:31:12;24.19;99.99
13496;DHT22;6820;49.374;8.452;2023-08-12T20:35:14;24.16;99.99
13496;DHT22;6820;49.374;8.452;2023-08-12T20:39:15;24.14;99.99
13496;DHT22;6820;49.374;8.452;2023-08-12T20:43:17;24.06;99.99
13496;DHT22;6820;49.374;8.452;2023-08-12T20:47:19;24.05;99.99
13496;DHT22;6820;49.374;8.452;2023-08-12T20:51:20;24.00;99.99
13496;DHT22;6820;49.374;8.452;2023-08-12T20:55:22;23.96;99.99
13496;DHT22;6820;49.374;8.452;2023-08-12T20:59:24;23.92;99.99
13496;DHT22;6820;49.374;8.452;2023-08-12T21:03:25;23.89;99.99
13496;DHT22;6820;49.374;8.452;2023-08-12T21:07:27;23.87;99.99
13496;DHT22;6820;49.374;8.452;2023-08-12T21:11:29;23.79;99.99
13496;DHT22;6820;49.374;8.452;2023-08-12T21:15:31;23.69;99.99
13496;DHT22;6820;49.374;8.452;2023-08-12T21:19:32;23.63;99.99
13496;DHT22;6820;49.374;8.452;2023-08-12T21:23:34;23.59;99.99
13496;DHT22;6820;49.374;8.452;2023-08-12T21:27:35;23.54;99.99
13496;DHT22;6820;49.374;8.452;2023-08-12T21:31:37;23.49;99.99
13496;DHT22;6820;49.374;8.452;2023-08-12T21:35:39;23.44;99.99
13496;DHT22;6820;49.374;8.452;2023-08-12T21:39:41;23.41;99.99
13496;DHT22;6820;49.374;8.452;2023-08-12T21:43:43;23.37;99.99
13496;DHT22;6820;49.374;8.452;2023-08-12T21:47:45;23.34;99.99
13496;DHT22;6820;49.374;8.452;2023-08-12T21:51:47;23.35;99.99
13496;DHT22;6820;49.374;8.452;2023-08-12T21:55:49;23.35;99.99
13496;DHT22;6820;49.374;8.452;2023-08-12T21:59:51;23.35;99.99
13496;DHT22;6820;49.374;8.452;2023-08-12T22:03:52;23.34;99.99
13496;DHT22;6820;49.374;8.452;2023-08-12T22:07:54;23.34;99.99
13496;DHT22;6820;49.374;8.452;2023-08-12T22:11:56;23.50;99.99
13496;DHT22;6820;49.374;8.452;2023-08-12T22:15:58;23.32;99.99
13496;DHT22;6820;49.374;8.452;2023-08-12T22:19:59;23.31;99.99
13496;DHT22;6820;49.374;8.452;2023-08-12T22:24:01;23.29;99.99
13496;DHT22;6820;49.374;8.452;2023-08-12T22:28:03;23.26;99.99
13496;DHT22;6820;49.374;8.452;2023-08-12T22:32:05;23.25;99.99
13496;DHT22;6820;49.374;8.452;2023-08-12T22:36:07;23.23;99.99
13496;DHT22;6820;49.374;8.452;2023-08-12T22:40:10;23.25;99.99
13496;DHT22;6820;49.374;8.452;2023-08-12T22:44:12;23.22;99.99
13496;DHT22;6820;49.374;8.452;2023-08-12T22:48:13;23.19;99.99
13496;DHT22;6820;49.374;8.452;2023-08-12T22:52:15;23.15;99.99
13496;DHT22;6820;49.374;8.452;2023-08-12T22:56:17;23.12;99.99
13496;DHT22;6820;49.374;8.452;2023-08-12T23:00:18;23.12;99.99
13496;DHT22;6820;49.374;8.452;2023-08-12T23:04:20;23.07;99.99
13496;DHT22;6820;49.374;8.452;2023-08-12T23:08:22;23.04;99.99
13496;DHT22;6820;49.374;8.452;2023-08-12T23:12:27;23.03;99.99
13496;DHT22;6820;49.374;8.452;2023-08-12T23:16:29;22.99;99.99
13496;DHT22;6820;49.374;8.452;2023-08-12T23:20:31;22.96;99.99
13496;DHT22;6820;49.374;8.452;2023-08-12T23:24:32;23.04;99.99
13496;DHT22;6820;49.374;8.452;2023-08-12T23:28:34;22.82;99.99
13496;DHT22;6820;49.374;8.452;2023-08-12T23:32:36;22.74;99.99
13496;DHT22;6820;49.374;8.452;2023-08-12T23:36:38;22.63;99.99
13496;DHT22;6820;49.374;8.452;2023-08-12T23:40:40;22.60;99.99
13496;DHT22;6820;49.374;8.452;2023-08-12T23:44:42;22.56;99.99
13496;DHT22;6820;49.374;8.452;2023-08-12T23:48:44;22.56;99.99
13496;DHT22;6820;49.374;8.452;2023-08-12T23:52:46;22.51;99.99
13496;DHT22;6820;49.374;8.452;2023-08-12T23:56:48;22.45;99.99
